createdAt,value
2022-08-14T00:03:05.934Z,101032.22
2022-08-14T00:08:14.540Z,101022.56
2022-08-14T00:13:21.793Z,101025.19
2022-08-14T00:18:30.866Z,101011.16
2022-08-14T00:23:54.234Z,101005.88
2022-08-14T00:28:59.339Z,100991.88
2022-08-14T00:34:36.063Z,100986.59
2022-08-14T00:39:30.143Z,100986.63
2022-08-14T00:44:35.424Z,100979.63
2022-08-14T00:49:43.509Z,100982.25
2022-08-14T00:54:58.045Z,100979.63
2022-08-14T01:00:05.882Z,100975.25
2022-08-14T01:05:41.903Z,100961.22
2022-08-14T01:10:57.834Z,100950.69
2022-08-14T01:16:05.894Z,100941.91
2022-08-14T01:21:15.890Z,100944.63
2022-08-14T01:26:34.752Z,100940.19
2022-08-14T01:31:44.068Z,100934.91
2022-08-14T01:36:55.578Z,100934.03
2022-08-14T01:42:01.299Z,100934.06
2022-08-14T01:47:12.480Z,100936.72
2022-08-14T01:52:34.527Z,100943.75
2022-08-14T01:58:01.505Z,100932.34
2022-08-14T02:03:17.959Z,100932.34
2022-08-14T02:08:34.831Z,100926.22
2022-08-14T02:13:43.287Z,100921.84
2022-08-14T02:18:49.843Z,100928.00
2022-08-14T02:23:57.551Z,100909.56
2022-08-14T02:29:05.727Z,100908.69
2022-08-14T02:34:22.509Z,100902.53
2022-08-14T02:39:32.256Z,100913.06
2022-08-14T02:44:39.459Z,100906.94
2022-08-14T02:49:45.592Z,100906.06
2022-08-14T02:54:50.731Z,100906.00
2022-08-14T02:59:57.412Z,100896.38
2022-08-14T03:05:01.325Z,100885.00
2022-08-14T03:10:26.288Z,100882.34
2022-08-14T03:15:35.652Z,100877.94
2022-08-14T03:20:41.726Z,100888.47
2022-08-14T03:25:46.812Z,100879.69
2022-08-14T03:30:54.913Z,100876.19
2022-08-14T03:37:28.394Z,100874.44
2022-08-14T03:41:26.776Z,100872.66
2022-08-14T03:46:52.183Z,100877.87
2022-08-14T03:52:00.624Z,100870.00
2022-08-14T03:57:06.813Z,100873.47
2022-08-14T04:02:32.492Z,100863.78
2022-08-14T04:08:00.040Z,100871.63
2022-08-14T04:13:06.705Z,100862.84
2022-08-14T04:18:16.312Z,100860.19
2022-08-14T04:23:29.668Z,100859.34
2022-08-14T04:29:07.107Z,100854.03
2022-08-14T04:34:05.114Z,100849.63
2022-08-14T04:39:26.537Z,100829.47
2022-08-14T04:44:36.872Z,100833.87
2022-08-14T04:49:56.745Z,100831.19
2022-08-14T04:55:01.392Z,100827.69
2022-08-14T05:00:07.636Z,100832.94
2022-08-14T05:05:21.981Z,100825.94
2022-08-14T05:10:31.950Z,100830.31
2022-08-14T05:15:39.528Z,100830.31
2022-08-14T05:21:10.860Z,100820.66
2022-08-14T05:26:18.220Z,100824.19
2022-08-14T05:31:21.910Z,100817.13
2022-08-14T05:36:28.839Z,100814.53
2022-08-14T05:41:52.662Z,100818.94
2022-08-14T05:46:58.129Z,100815.47
2022-08-14T05:52:03.520Z,100824.28
2022-08-14T05:57:13.463Z,100814.66
2022-08-14T06:02:17.254Z,100813.81
2022-08-14T06:07:26.796Z,100817.31
2022-08-14T06:12:56.060Z,100823.47
2022-08-14T06:17:59.073Z,100819.16
2022-08-14T06:23:05.392Z,100809.53
2022-08-14T06:28:28.071Z,100801.69
2022-08-14T06:35:03.715Z,100807.81
2022-08-14T06:38:57.919Z,100804.31
2022-08-14T06:44:01.670Z,100807.81
2022-08-14T06:49:06.460Z,100799.03
2022-08-14T06:54:11.543Z,100793.78
2022-08-14T06:59:19.922Z,100794.62
2022-08-14T07:04:41.513Z,100805.09
2022-08-14T07:09:50.684Z,100802.44
2022-08-14T07:15:01.035Z,100799.72
2022-08-14T07:20:07.418Z,100793.50
2022-08-14T07:25:12.917Z,100789.87
2022-08-14T07:30:34.403Z,100786.22
2022-08-14T07:35:57.426Z,100783.47
2022-08-14T07:41:06.911Z,100777.13
2022-08-14T07:46:16.246Z,100782.25
2022-08-14T07:51:25.962Z,100782.91
2022-08-14T07:56:48.022Z,100780.91
2022-08-14T08:01:54.288Z,100771.91
2022-08-14T08:07:03.445Z,100776.03
2022-08-14T08:12:15.718Z,100783.69
2022-08-14T08:17:20.576Z,100771.06
2022-08-14T08:22:27.279Z,100773.31
2022-08-14T08:27:32.652Z,100751.81
2022-08-14T08:32:41.218Z,100751.31
2022-08-14T08:37:45.737Z,100760.56
2022-08-14T08:42:53.150Z,100766.22
2022-08-14T08:47:57.237Z,100758.53
2022-08-14T08:53:04.061Z,100750.75
2022-08-14T08:58:15.988Z,100742.97
2022-08-14T09:03:27.515Z,100742.09
2022-08-14T09:08:34.103Z,100743.56
2022-08-14T09:13:42.111Z,100740.59
2022-08-14T09:18:46.709Z,100715.66
2022-08-14T09:24:30.248Z,100730.31
2022-08-14T09:29:20.126Z,100723.34
2022-08-14T09:34:57.903Z,100714.56
2022-08-14T09:40:10.021Z,100720.00
2022-08-14T09:45:18.958Z,100712.50
2022-08-14T09:50:26.845Z,100702.31
2022-08-14T09:55:41.289Z,100693.91
2022-08-14T10:00:49.817Z,100687.63
2022-08-14T10:06:05.998Z,100675.47
2022-08-14T10:11:19.377Z,100673.28
2022-08-14T10:16:33.136Z,100673.41
2022-08-14T10:23:11.154Z,100658.66
2022-08-14T10:27:03.383Z,100659.78
2022-08-14T10:32:17.897Z,100655.94
2022-08-14T10:37:22.927Z,100646.97
2022-08-14T10:42:37.331Z,100641.38
2022-08-14T10:48:07.558Z,100640.03
2022-08-14T10:53:07.863Z,100630.44
2022-08-14T10:58:11.997Z,100629.84
2022-08-14T11:03:26.413Z,100624.94
2022-08-14T11:08:39.786Z,100623.28
2022-08-14T11:13:46.306Z,100615.38
2022-08-14T11:18:55.903Z,100613.66
2022-08-14T11:24:50.589Z,100617.66
2022-08-14T11:29:36.140Z,100617.91
2022-08-14T11:34:41.864Z,100621.41
2022-08-14T11:39:46.393Z,100602.47
2022-08-14T11:44:50.480Z,100596.31
2022-08-14T11:49:59.211Z,100576.41
2022-08-14T11:55:11.701Z,100564.09
2022-08-14T12:00:19.502Z,100563.16
2022-08-14T12:05:32.276Z,100552.00
2022-08-14T12:10:37.245Z,100546.78
2022-08-14T12:15:51.413Z,100555.41
2022-08-14T12:20:59.488Z,100534.25
2022-08-14T12:26:12.216Z,100535.91
2022-08-14T12:31:36.391Z,100532.91
2022-08-14T12:36:50.120Z,100526.84
2022-08-14T12:41:57.041Z,100514.53
2022-08-14T12:47:07.298Z,100505.94
2022-08-14T12:52:17.197Z,100496.03
2022-08-14T12:57:24.036Z,100498.66
2022-08-14T13:02:29.907Z,100496.62
2022-08-14T13:07:34.986Z,100491.66
2022-08-14T13:13:03.326Z,100486.25
2022-08-14T13:18:11.346Z,100487.47
2022-08-14T13:23:18.189Z,100485.31
2022-08-14T13:28:33.609Z,100482.88
2022-08-14T13:33:40.882Z,100477.56
2022-08-14T13:38:49.960Z,100464.41
2022-08-14T13:43:59.582Z,100471.84
2022-08-14T13:49:04.184Z,100463.09
2022-08-14T13:54:11.653Z,100460.94
2022-08-14T13:59:20.387Z,100449.28
2022-08-14T14:04:46.317Z,100441.03
2022-08-14T14:09:56.339Z,100428.31
2022-08-14T14:15:05.259Z,100424.88
2022-08-14T14:20:15.210Z,100421.41
2022-08-14T14:25:48.634Z,100425.28
2022-08-14T14:30:57.428Z,100420.69
2022-08-14T14:36:06.817Z,100415.53
2022-08-14T14:41:18.779Z,100415.31
2022-08-14T14:46:36.742Z,100397.78
2022-08-14T14:51:43.454Z,100399.78
2022-08-14T14:56:52.434Z,100390.72
2022-08-14T15:02:01.595Z,100387.00
2022-08-14T15:07:09.040Z,100373.50
2022-08-14T15:12:55.329Z,100377.62
2022-08-14T15:17:42.450Z,100369.63
2022-08-14T15:22:51.219Z,100364.12
2022-08-14T15:27:57.056Z,100367.78
2022-08-14T15:33:00.900Z,100367.81
2022-08-14T15:38:08.021Z,100356.78
2022-08-14T15:43:13.319Z,100359.22
2022-08-14T15:48:22.670Z,100352.34
2022-08-14T15:53:31.435Z,100356.28
2022-08-14T15:58:37.491Z,100351.94
2022-08-14T16:03:42.495Z,100350.69
2022-08-14T16:08:58.676Z,100342.94
2022-08-14T16:14:06.725Z,100344.12
2022-08-14T16:19:11.424Z,100342.94
2022-08-14T16:24:26.891Z,100341.66
2022-08-14T16:29:35.684Z,100337.25
2022-08-14T16:34:45.470Z,100332.25
2022-08-14T16:39:53.837Z,100327.16
2022-08-14T16:45:00.747Z,100325.88
2022-08-14T16:50:08.663Z,100322.41
2022-08-14T16:55:17.053Z,100306.47
2022-08-14T17:00:43.851Z,100312.28
2022-08-14T17:05:49.299Z,100300.03
2022-08-14T17:11:02.192Z,100305.28
2022-08-14T17:16:24.292Z,100299.72
2022-08-14T17:21:37.342Z,100295.03
2022-08-14T17:26:44.382Z,100295.28
2022-08-14T17:31:58.655Z,100285.59
2022-08-14T17:37:05.968Z,100283.25
2022-08-14T17:42:33.477Z,100284.13
2022-08-14T17:47:39.206Z,100288.59
2022-08-14T17:52:48.924Z,100283.72
2022-08-14T17:57:54.634Z,100287.69
2022-08-14T18:03:00.149Z,100281.16
2022-08-14T18:08:33.746Z,100280.06
2022-08-14T18:13:51.051Z,100285.31
2022-08-14T18:19:02.460Z,100290.81
2022-08-14T18:24:20.162Z,100286.31
2022-08-14T18:29:32.588Z,100280.00
2022-08-14T18:34:48.442Z,100280.69
2022-08-14T18:40:03.587Z,100284.94
2022-08-14T18:45:12.762Z,100276.62
2022-08-14T18:50:27.040Z,100278.03
2022-08-14T18:55:53.389Z,100273.38
2022-08-14T19:01:01.312Z,100277.72
2022-08-14T19:06:08.875Z,100280.09
2022-08-14T19:11:32.031Z,100287.06
2022-08-14T19:16:37.861Z,100290.09
2022-08-14T19:21:56.549Z,100284.09
2022-08-14T19:27:23.983Z,100287.31
2022-08-14T19:32:39.757Z,100287.03
2022-08-14T19:37:48.419Z,100288.06
2022-08-14T19:42:58.321Z,100288.44
2022-08-14T19:48:03.879Z,100287.13
2022-08-14T19:53:17.207Z,100284.91
2022-08-14T19:58:30.304Z,100280.03
2022-08-14T20:04:00.269Z,100284.84
2022-08-14T20:11:03.430Z,100284.50
2022-08-14T20:14:37.854Z,100287.50
2022-08-14T20:19:42.592Z,100286.00
2022-08-14T20:24:50.115Z,100291.41
2022-08-14T20:35:36.203Z,100275.25
2022-08-14T20:40:50.414Z,100280.91
2022-08-14T20:45:54.406Z,100279.47
2022-08-14T20:51:00.181Z,100280.69
2022-08-14T20:56:29.076Z,100268.72
2022-08-14T21:01:38.479Z,100271.81
2022-08-14T21:07:23.539Z,100268.38
2022-08-14T21:12:06.563Z,100258.84
2022-08-14T21:17:32.268Z,100250.41
2022-08-14T21:22:44.623Z,100249.84
2022-08-14T21:27:57.171Z,100254.37
2022-08-14T21:33:04.331Z,100255.38
2022-08-14T21:38:17.991Z,100256.34
2022-08-14T21:43:24.750Z,100256.41
2022-08-14T21:48:31.899Z,100259.16
2022-08-14T21:53:36.695Z,100255.72
2022-08-14T21:59:04.533Z,100251.34
2022-08-14T22:04:33.665Z,100244.41
2022-08-14T22:09:36.407Z,100236.66
2022-08-14T22:14:43.172Z,100236.72
2022-08-14T22:19:54.899Z,100241.19
2022-08-14T22:25:01.201Z,100241.09
2022-08-14T22:30:08.512Z,100239.41
2022-08-14T22:35:17.784Z,100237.81
2022-08-14T22:40:58.408Z,100233.59
2022-08-14T22:45:55.812Z,100223.13
2022-08-14T22:51:01.341Z,100224.09
2022-08-14T22:56:05.389Z,100219.69
2022-08-14T23:01:57.343Z,100217.09
2022-08-14T23:07:03.058Z,100218.06
2022-08-14T23:12:27.891Z,100219.78
2022-08-14T23:17:40.360Z,100230.53
2022-08-14T23:22:47.025Z,100229.09
2022-08-14T23:28:03.033Z,100224.91
2022-08-14T23:33:07.797Z,100227.66
2022-08-14T23:38:30.075Z,100225.16
2022-08-14T23:43:34.811Z,100224.53
2022-08-14T23:48:44.454Z,100214.84
2022-08-14T23:53:52.691Z,100215.75
2022-08-14T23:58:57.190Z,100211.44
